createdAt,value
2022-09-12T00:05:23.223Z,27.78
2022-09-12T00:20:25.432Z,27.25
2022-09-12T00:35:27.643Z,26.97
2022-09-12T00:50:29.896Z,26.11
2022-09-12T01:05:32.175Z,25.26
2022-09-12T01:20:34.430Z,24.71
2022-09-12T01:35:36.693Z,23.92
2022-09-12T01:50:38.959Z,23.34
2022-09-12T02:05:41.343Z,23.21
2022-09-12T02:20:48.559Z,22.5
2022-09-12T02:35:51.706Z,22.36
2022-09-12T02:50:54.038Z,22.15
2022-09-12T03:05:56.284Z,21.97
2022-09-12T03:20:58.885Z,21
2022-09-12T03:36:01.211Z,20.88
2022-09-12T03:51:03.679Z,20.85
2022-09-12T04:06:06.018Z,20.25
2022-09-12T04:21:08.241Z,19.55
2022-09-12T04:36:10.532Z,19.1
2022-09-12T04:51:12.910Z,19.37
2022-09-12T05:06:15.226Z,19.05
2022-09-12T05:21:17.482Z,18.89
2022-09-12T05:36:19.744Z,18.75
2022-09-12T05:51:22.121Z,18.7
2022-09-12T06:06:24.350Z,18.54
2022-09-12T06:21:26.650Z,18.39
2022-09-12T06:36:29.064Z,17.44
2022-09-12T06:51:31.398Z,17.7
2022-09-12T07:06:33.673Z,17.86
2022-09-12T07:21:35.898Z,17.96
2022-09-12T07:36:38.160Z,17.88
2022-09-12T07:51:40.432Z,17.21
2022-09-12T08:06:42.651Z,17.1
2022-09-12T08:21:45.065Z,16.78
2022-09-12T08:36:47.354Z,17.08
2022-09-12T08:51:49.598Z,17.17
2022-09-12T09:06:51.806Z,17.2
2022-09-12T09:21:54.081Z,17.23
2022-09-12T09:36:56.389Z,16.88
2022-09-12T09:52:00.553Z,17.26
2022-09-12T10:07:03.015Z,17.24
2022-09-12T10:22:05.318Z,17.29
2022-09-12T10:37:07.557Z,17.11
2022-09-12T10:52:09.778Z,17.31
2022-09-12T11:07:12.270Z,17.32
2022-09-12T11:22:14.712Z,17.42
2022-09-12T11:37:18.208Z,16.94
2022-09-12T11:52:20.499Z,17.32
2022-09-12T12:07:22.718Z,17.13
2022-09-12T12:22:25.186Z,17.24
2022-09-12T12:37:27.436Z,16.19
2022-09-12T12:52:29.724Z,16.98
2022-09-12T13:07:32.139Z,17.33
2022-09-12T13:22:34.352Z,17.29
2022-09-12T13:37:36.618Z,17.35
2022-09-12T13:52:38.946Z,17.34
2022-09-12T14:07:41.330Z,16.93
2022-09-12T14:22:43.542Z,17.71
2022-09-12T14:37:45.811Z,17.69
2022-09-12T14:52:48.097Z,17.75
2022-09-12T15:07:50.548Z,17.83
2022-09-12T15:22:52.768Z,17.84
2022-09-12T15:37:55.165Z,18.1
2022-09-12T15:52:57.395Z,18.49
2022-09-12T16:07:59.697Z,18.78
2022-09-12T16:23:02.110Z,18.81
2022-09-12T16:38:04.784Z,18.94
2022-09-12T16:53:07.059Z,18.67
2022-09-12T17:08:09.336Z,18.5
2022-09-12T17:23:11.720Z,18.82
2022-09-12T17:38:18.050Z,19.35
2022-09-12T17:53:21.694Z,18.76
2022-09-12T18:08:23.902Z,18.81
2022-09-12T18:23:26.067Z,17.97
2022-09-12T18:38:28.264Z,18.95
2022-09-12T18:53:30.457Z,19.94
2022-09-12T19:08:32.737Z,18.96
2022-09-12T19:23:35.037Z,20.04
2022-09-12T19:38:37.277Z,19.48
2022-09-12T19:53:39.468Z,18.82
2022-09-12T20:08:41.763Z,18.24
2022-09-12T20:23:43.987Z,18.6
2022-09-12T20:38:46.321Z,18.74
2022-09-12T20:53:48.727Z,18.51
2022-09-12T21:08:51.080Z,18.8
2022-09-12T21:23:53.278Z,19.6
2022-09-12T21:38:55.544Z,19.46
2022-09-12T21:53:57.789Z,19.73
2022-09-12T22:08:59.966Z,19.8
2022-09-12T22:24:02.336Z,19.54
2022-09-12T22:39:04.575Z,19.59
2022-09-12T22:54:06.780Z,19.33
2022-09-12T23:09:09.114Z,18.86
2022-09-12T23:24:11.345Z,19.07
2022-09-12T23:39:13.544Z,18.82
2022-09-12T23:54:15.791Z,18.9
